KCOQ

Cloquet Carlton County Airport

Cloquet, Minnesota, USA
METAR KCOQ 151915Z AUTO 28005KT 10SM OVC090 M10/M16 A2976 RMK AO2
Observed Flight Rules
Dec-15 @ 19:15 UTC (33 minutes ago) Visual Flight Rules
Wind Visibility Clouds
280° at 5 knots 10 miles
  • Overcast at 9,000' AGL
Temperatures Readings
Current -10°C / 14°F
Dewpoint -16°C / 3°F
Humidity 62%
Altimeter 29.76" Hg
Pressure 1008 hPa
Elevation 390
METAR KCOQ 151915Z AUTO 28005KT 10SM OVC090 M10/M16 A2976 RMK AO2
Observed Flight Rules
Dec-15 @ 19:15 UTC
(33 minutes ago)
VFR
Wind Visibility
280° at 5 knots 10 miles
Clouds
  • Overcast at 9,000' AGL
Temperature Dewpoint
-10°C / 14°F -16°C / 3°F
Humidity Altimeter Pressure
62% 29.76" Hg 1008 hPa